sensor_id;sensor_type;location;lat;lon;timestamp;P1;durP1;ratioP1;P2;durP2;ratioP2
43554;SDS011;35085;40.398;-3.702;2023-03-05T00:02:48;9.10;;;4.72;;
43554;SDS011;35085;40.398;-3.702;2023-03-05T00:12:57;8.98;;;4.70;;
43554;SDS011;35085;40.398;-3.702;2023-03-05T00:23:28;8.02;;;3.95;;
43554;SDS011;35085;40.398;-3.702;2023-03-05T00:33:37;9.25;;;4.47;;
43554;SDS011;35085;40.398;-3.702;2023-03-05T00:44:05;14.30;;;5.25;;
43554;SDS011;35085;40.398;-3.702;2023-03-05T00:54:15;9.38;;;4.65;;
43554;SDS011;35085;40.398;-3.702;2023-03-05T01:04:44;14.77;;;5.88;;
43554;SDS011;35085;40.398;-3.702;2023-03-05T01:14:54;13.30;;;5.68;;
43554;SDS011;35085;40.398;-3.702;2023-03-05T01:25:24;12.20;;;5.38;;
43554;SDS011;35085;40.398;-3.702;2023-03-05T01:35:33;9.80;;;5.20;;
43554;SDS011;35085;40.398;-3.702;2023-03-05T01:56:23;9.85;;;5.13;;
43554;SDS011;35085;40.398;-3.702;2023-03-05T02:06:52;8.77;;;4.97;;
43554;SDS011;35085;40.398;-3.702;2023-03-05T02:17:02;11.63;;;5.38;;
43554;SDS011;35085;40.398;-3.702;2023-03-05T02:27:31;10.55;;;5.05;;
43554;SDS011;35085;40.398;-3.702;2023-03-05T02:37:45;9.80;;;5.65;;
43554;SDS011;35085;40.398;-3.702;2023-03-05T02:48:17;9.52;;;5.20;;
43554;SDS011;35085;40.398;-3.702;2023-03-05T02:58:35;11.95;;;4.88;;
43554;SDS011;35085;40.398;-3.702;2023-03-05T03:09:10;9.88;;;4.95;;
43554;SDS011;35085;40.398;-3.702;2023-03-05T03:19:25;11.07;;;5.68;;
43554;SDS011;35085;40.398;-3.702;2023-03-05T03:30:03;12.88;;;6.00;;
43554;SDS011;35085;40.398;-3.702;2023-03-05T03:40:19;12.98;;;6.47;;
43554;SDS011;35085;40.398;-3.702;2023-03-05T03:50:49;11.90;;;5.95;;
43554;SDS011;35085;40.398;-3.702;2023-03-05T04:00:58;14.77;;;6.70;;
43554;SDS011;35085;40.398;-3.702;2023-03-05T04:11:28;12.35;;;6.10;;
43554;SDS011;35085;40.398;-3.702;2023-03-05T04:21:38;14.77;;;6.07;;
43554;SDS011;35085;40.398;-3.702;2023-03-05T04:32:08;14.07;;;6.53;;
43554;SDS011;35085;40.398;-3.702;2023-03-05T04:42:18;14.27;;;5.68;;
43554;SDS011;35085;40.398;-3.702;2023-03-05T04:52:55;15.13;;;5.82;;
43554;SDS011;35085;40.398;-3.702;2023-03-05T05:03:06;13.85;;;5.63;;
43554;SDS011;35085;40.398;-3.702;2023-03-05T05:13:34;12.32;;;5.90;;
43554;SDS011;35085;40.398;-3.702;2023-03-05T05:23:43;15.25;;;5.82;;
43554;SDS011;35085;40.398;-3.702;2023-03-05T05:34:14;12.25;;;6.05;;
43554;SDS011;35085;40.398;-3.702;2023-03-05T05:44:23;13.30;;;5.53;;
43554;SDS011;35085;40.398;-3.702;2023-03-05T05:54:55;11.50;;;4.95;;
43554;SDS011;35085;40.398;-3.702;2023-03-05T06:05:04;14.70;;;5.05;;
43554;SDS011;35085;40.398;-3.702;2023-03-05T06:15:35;14.00;;;5.68;;
43554;SDS011;35085;40.398;-3.702;2023-03-05T06:25:44;11.80;;;5.72;;
43554;SDS011;35085;40.398;-3.702;2023-03-05T06:36:14;11.65;;;6.28;;
43554;SDS011;35085;40.398;-3.702;2023-03-05T06:46:24;13.02;;;5.40;;
43554;SDS011;35085;40.398;-3.702;2023-03-05T06:56:56;11.98;;;5.53;;
43554;SDS011;35085;40.398;-3.702;2023-03-05T07:07:05;10.43;;;5.25;;
43554;SDS011;35085;40.398;-3.702;2023-03-05T07:17:35;15.07;;;5.82;;
43554;SDS011;35085;40.398;-3.702;2023-03-05T07:27:44;12.75;;;5.70;;
43554;SDS011;35085;40.398;-3.702;2023-03-05T07:38:15;10.52;;;5.80;;
43554;SDS011;35085;40.398;-3.702;2023-03-05T07:48:24;13.55;;;5.93;;
43554;SDS011;35085;40.398;-3.702;2023-03-05T07:58:54;12.20;;;5.90;;
43554;SDS011;35085;40.398;-3.702;2023-03-05T08:09:04;15.43;;;6.20;;
43554;SDS011;35085;40.398;-3.702;2023-03-05T08:19:32;14.48;;;5.82;;
43554;SDS011;35085;40.398;-3.702;2023-03-05T08:29:41;11.38;;;5.97;;
43554;SDS011;35085;40.398;-3.702;2023-03-05T08:40:11;16.65;;;6.70;;
43554;SDS011;35085;40.398;-3.702;2023-03-05T08:50:20;12.15;;;6.25;;
43554;SDS011;35085;40.398;-3.702;2023-03-05T09:00:50;14.25;;;7.03;;
43554;SDS011;35085;40.398;-3.702;2023-03-05T09:11:03;14.55;;;6.85;;
43554;SDS011;35085;40.398;-3.702;2023-03-05T09:21:31;10.70;;;5.82;;
43554;SDS011;35085;40.398;-3.702;2023-03-05T09:31:40;14.52;;;6.97;;
43554;SDS011;35085;40.398;-3.702;2023-03-05T09:52:36;15.90;;;6.60;;
43554;SDS011;35085;40.398;-3.702;2023-03-05T10:03:15;22.23;;;7.88;;
43554;SDS011;35085;40.398;-3.702;2023-03-05T10:13:26;18.48;;;7.53;;
43554;SDS011;35085;40.398;-3.702;2023-03-05T10:24:02;20.92;;;10.40;;
43554;SDS011;35085;40.398;-3.702;2023-03-05T10:44:51;16.73;;;7.80;;
43554;SDS011;35085;40.398;-3.702;2023-03-05T10:55:00;13.52;;;6.45;;
43554;SDS011;35085;40.398;-3.702;2023-03-05T11:05:38;17.17;;;6.80;;
43554;SDS011;35085;40.398;-3.702;2023-03-05T11:15:56;13.77;;;6.80;;
43554;SDS011;35085;40.398;-3.702;2023-03-05T11:26:27;11.98;;;5.63;;
43554;SDS011;35085;40.398;-3.702;2023-03-05T11:36:40;14.10;;;6.53;;
43554;SDS011;35085;40.398;-3.702;2023-03-05T11:57:18;15.25;;;6.60;;
43554;SDS011;35085;40.398;-3.702;2023-03-05T12:07:49;14.73;;;7.30;;
43554;SDS011;35085;40.398;-3.702;2023-03-05T12:18:04;18.77;;;8.88;;
43554;SDS011;35085;40.398;-3.702;2023-03-05T12:38:54;16.23;;;7.28;;
43554;SDS011;35085;40.398;-3.702;2023-03-05T12:59:39;14.93;;;7.28;;
43554;SDS011;35085;40.398;-3.702;2023-03-05T13:10:28;17.15;;;8.73;;
43554;SDS011;35085;40.398;-3.702;2023-03-05T13:20:37;12.13;;;4.90;;
43554;SDS011;35085;40.398;-3.702;2023-03-05T13:31:13;14.73;;;5.82;;
43554;SDS011;35085;40.398;-3.702;2023-03-05T13:41:25;10.93;;;5.15;;
43554;SDS011;35085;40.398;-3.702;2023-03-05T13:51:57;8.75;;;4.00;;
43554;SDS011;35085;40.398;-3.702;2023-03-05T14:02:16;3.70;;;2.33;;
43554;SDS011;35085;40.398;-3.702;2023-03-05T14:12:45;6.80;;;3.10;;
43554;SDS011;35085;40.398;-3.702;2023-03-05T14:22:58;7.60;;;3.28;;
43554;SDS011;35085;40.398;-3.702;2023-03-05T14:33:30;9.25;;;4.75;;
43554;SDS011;35085;40.398;-3.702;2023-03-05T14:43:40;11.82;;;5.65;;
43554;SDS011;35085;40.398;-3.702;2023-03-05T14:54:19;9.18;;;4.60;;
43554;SDS011;35085;40.398;-3.702;2023-03-05T15:04:28;13.35;;;4.20;;
43554;SDS011;35085;40.398;-3.702;2023-03-05T15:14:59;11.68;;;4.70;;
43554;SDS011;35085;40.398;-3.702;2023-03-05T15:25:07;11.48;;;5.20;;
43554;SDS011;35085;40.398;-3.702;2023-03-05T15:35:37;11.07;;;4.45;;
43554;SDS011;35085;40.398;-3.702;2023-03-05T15:45:47;9.95;;;4.70;;
43554;SDS011;35085;40.398;-3.702;2023-03-05T15:56:17;10.30;;;5.13;;
43554;SDS011;35085;40.398;-3.702;2023-03-05T16:06:27;10.57;;;5.05;;
43554;SDS011;35085;40.398;-3.702;2023-03-05T16:16:58;9.45;;;5.40;;
43554;SDS011;35085;40.398;-3.702;2023-03-05T16:27:10;15.00;;;6.17;;
43554;SDS011;35085;40.398;-3.702;2023-03-05T16:37:41;25.48;;;12.05;;
43554;SDS011;35085;40.398;-3.702;2023-03-05T16:47:50;11.73;;;6.80;;
43554;SDS011;35085;40.398;-3.702;2023-03-05T16:58:21;15.07;;;7.50;;
43554;SDS011;35085;40.398;-3.702;2023-03-05T17:08:29;14.80;;;7.50;;
43554;SDS011;35085;40.398;-3.702;2023-03-05T17:19:01;11.23;;;6.70;;
43554;SDS011;35085;40.398;-3.702;2023-03-05T17:29:10;11.90;;;6.90;;
43554;SDS011;35085;40.398;-3.702;2023-03-05T17:39:42;10.77;;;5.75;;
43554;SDS011;35085;40.398;-3.702;2023-03-05T17:49:50;12.02;;;6.40;;
43554;SDS011;35085;40.398;-3.702;2023-03-05T18:00:25;11.32;;;6.22;;
43554;SDS011;35085;40.398;-3.702;2023-03-05T18:10:34;11.32;;;6.47;;
43554;SDS011;35085;40.398;-3.702;2023-03-05T18:21:03;11.38;;;6.47;;
43554;SDS011;35085;40.398;-3.702;2023-03-05T18:31:13;13.23;;;6.13;;
43554;SDS011;35085;40.398;-3.702;2023-03-05T18:41:43;11.40;;;5.68;;
43554;SDS011;35085;40.398;-3.702;2023-03-05T18:51:53;10.27;;;5.68;;
43554;SDS011;35085;40.398;-3.702;2023-03-05T19:02:22;11.38;;;5.80;;
43554;SDS011;35085;40.398;-3.702;2023-03-05T19:12:32;11.18;;;6.22;;
43554;SDS011;35085;40.398;-3.702;2023-03-05T19:23:15;10.18;;;5.85;;
43554;SDS011;35085;40.398;-3.702;2023-03-05T19:33:24;15.13;;;7.18;;
43554;SDS011;35085;40.398;-3.702;2023-03-05T19:44:14;11.50;;;6.80;;
43554;SDS011;35085;40.398;-3.702;2023-03-05T19:54:24;14.25;;;7.20;;
43554;SDS011;35085;40.398;-3.702;2023-03-05T20:04:54;13.75;;;7.72;;
43554;SDS011;35085;40.398;-3.702;2023-03-05T20:15:04;15.38;;;8.07;;
43554;SDS011;35085;40.398;-3.702;2023-03-05T20:25:41;15.50;;;9.02;;
43554;SDS011;35085;40.398;-3.702;2023-03-05T20:35:59;16.85;;;9.63;;
43554;SDS011;35085;40.398;-3.702;2023-03-05T20:46:35;17.17;;;10.23;;
43554;SDS011;35085;40.398;-3.702;2023-03-05T20:57:04;15.02;;;9.70;;
43554;SDS011;35085;40.398;-3.702;2023-03-05T21:07:34;18.95;;;10.85;;
43554;SDS011;35085;40.398;-3.702;2023-03-05T21:17:43;20.45;;;11.40;;
43554;SDS011;35085;40.398;-3.702;2023-03-05T21:28:15;18.27;;;10.57;;
43554;SDS011;35085;40.398;-3.702;2023-03-05T21:38:26;18.42;;;9.88;;
43554;SDS011;35085;40.398;-3.702;2023-03-05T21:48:57;17.48;;;9.88;;
43554;SDS011;35085;40.398;-3.702;2023-03-05T21:59:06;15.25;;;8.63;;
43554;SDS011;35085;40.398;-3.702;2023-03-05T22:09:37;15.40;;;8.90;;
43554;SDS011;35085;40.398;-3.702;2023-03-05T22:19:46;15.60;;;9.43;;
43554;SDS011;35085;40.398;-3.702;2023-03-05T22:30:16;22.73;;;13.68;;
43554;SDS011;35085;40.398;-3.702;2023-03-05T22:40:24;27.30;;;14.43;;
43554;SDS011;35085;40.398;-3.702;2023-03-05T22:50:54;21.67;;;12.55;;
43554;SDS011;35085;40.398;-3.702;2023-03-05T23:01:10;30.42;;;15.80;;
43554;SDS011;35085;40.398;-3.702;2023-03-05T23:11:40;24.67;;;14.07;;
43554;SDS011;35085;40.398;-3.702;2023-03-05T23:21:49;27.02;;;13.85;;
43554;SDS011;35085;40.398;-3.702;2023-03-05T23:32:23;27.77;;;14.65;;
43554;SDS011;35085;40.398;-3.702;2023-03-05T23:42:31;26.65;;;14.18;;
43554;SDS011;35085;40.398;-3.702;2023-03-05T23:53:02;27.75;;;14.63;;
